Terminal Aerodrome Forecast
Issued by NWS Twin Cities, MN

Home | Current Version | Previous Version | Text Only | Print | Product List | Glossary Off
Versions: 1 2 3 4 5 6 7 8 9 10 11 12 13 14 15 16 17

425
FTUS43 KMPX 290900 AAA
TAFSTC
TAF AMD
KSTC 290900Z 2909/3006 02004KT P6SM SCT250
     FM291600 04010KT P6SM BKN200
     FM300300 04005KT P6SM BKN150=

USA.gov is the U.S. government's official web portal to all federal, state and local government web resources and services.